Braddock, New Jersey
Current Conditions -  °F | °C
As of 8:54 AM on Sunday 21 Dec 2014 (Local Time) from KACY Reporting Station
Overcast Overcast  
Wind Chill: 26°   Ceiling: 8000
Heat Index: 31°   Visibility: 8mi
Dew Point: 25°   Wind: 5mph
Humidity: 79%   Direction: 300°WNW
Pressure: 30.33"   Gusts: NA
Location:  39.637°N, 74.7602°W
Report Text: KACY 211354Z 30004KT 8SM OVC080 M01/M04 A3033 RMK AO2 SLP271 T10061039
Loading
Personal Weather Stations






























Interactive Weather Map New forecast layout! Learn more

10-Day Weather Forecast

Advertisements
Track Severe Weather on mobile